Time;durP1;ratioP1;P1;durP2;ratioP2;P2;SDS_P1;SDS_P2;PMS_P1;PMS_P2;Temp;Humidity;BMP_temperature;BMP_pressure;BME280_temperature;BME280_humidity;BME280_pressure;Samples;Min_cycle;Max_cycle;Signal;HPM_P1;HPM_P2
2023/05/11 00:01:16;;;;;;;9.68;4.53;;;;;;;;;;5033228;28;20368;-76
2023/05/11 00:03:42;;;;;;;5.47;4.30;;;;;;;;;;5032876;28;20029;-74
2023/05/11 00:06:08;;;;;;;6.35;4.80;;;;;;;;;;5033493;28;20048;-74
2023/05/11 00:08:34;;;;;;;7.45;4.75;;;;;;;;;;5032474;28;20460;-73
2023/05/11 00:11:00;;;;;;;5.25;4.38;;;;;;;;;;5032841;28;20386;-74
2023/05/11 00:13:27;;;;;;;5.78;4.40;;;;;;;;;;5031751;28;20395;-73
2023/05/11 00:15:53;;;;;;;6.88;4.28;;;;;;;;;;5032402;28;20029;-75
2023/05/11 00:18:19;;;;;;;6.82;4.15;;;;;;;;;;5032140;28;20084;-75
2023/05/11 00:20:48;;;;;;;5.25;4.30;;;;;;;;;;5032857;28;20025;-75
2023/05/11 00:23:15;;;;;;;6.10;5.00;;;;;;;;;;5014875;28;20036;-75
2023/05/11 00:25:41;;;;;;;5.50;4.47;;;;;;;;;;5032558;28;20022;-75
2023/05/11 00:28:07;;;;;;;4.80;4.30;;;;;;;;;;5031936;28;20052;-73
2023/05/11 00:30:33;;;;;;;6.20;4.43;;;;;;;;;;5014660;28;20029;-74
2023/05/11 00:32:59;;;;;;;6.68;4.55;;;;;;;;;;5015159;28;20022;-74
2023/05/11 00:35:25;;;;;;;6.32;4.72;;;;;;;;;;5015142;28;20059;-74
2023/05/11 00:37:51;;;;;;;7.20;4.55;;;;;;;;;;5033284;28;20021;-76
2023/05/11 00:40:17;;;;;;;7.25;4.63;;;;;;;;;;5000918;23;20556;-75
2023/05/11 00:42:43;;;;;;;4.97;4.47;;;;;;;;;;4992527;28;20117;-75
2023/05/11 00:45:10;;;;;;;6.57;4.72;;;;;;;;;;4992466;28;20022;-76
2023/05/11 00:47:36;;;;;;;7.90;5.00;;;;;;;;;;4992024;28;20480;-75
2023/05/11 00:50:02;;;;;;;11.95;5.22;;;;;;;;;;4985483;28;20029;-75
2023/05/11 00:52:29;;;;;;;6.55;4.95;;;;;;;;;;5012470;28;20028;-75
2023/05/11 00:54:55;;;;;;;5.53;4.35;;;;;;;;;;5012859;28;20456;-75
2023/05/11 00:57:21;;;;;;;5.50;4.90;;;;;;;;;;5011602;28;20396;-75
2023/05/11 00:59:48;;;;;;;7.30;5.13;;;;;;;;;;5007430;28;20100;-74
2023/05/11 01:02:14;;;;;;;6.88;5.07;;;;;;;;;;4995813;28;20258;-74
2023/05/11 01:04:41;;;;;;;7.43;5.63;;;;;;;;;;4991403;28;20057;-75
2023/05/11 01:07:21;;;;;;;6.43;5.05;;;;;;;;;;4995176;28;20113;-75
2023/05/11 01:09:47;;;;;;;5.78;4.88;;;;;;;;;;4993898;28;20079;-76
2023/05/11 01:12:22;;;;;;;5.90;4.93;;;;;;;;;;5011327;28;20037;-76
2023/05/11 01:14:54;;;;;;;8.00;5.65;;;;;;;;;;5011630;28;20492;-76
2023/05/11 01:17:23;;;;;;;5.65;4.97;;;;;;;;;;5014530;28;20037;-76
2023/05/11 01:20:01;;;;;;;5.32;4.45;;;;;;;;;;5019024;28;20177;-75
2023/05/11 01:22:27;;;;;;;7.80;4.80;;;;;;;;;;5014609;28;20037;-76
2023/05/11 01:24:55;;;;;;;9.23;5.28;;;;;;;;;;5012865;28;20025;-75
2023/05/11 01:27:31;;;;;;;6.43;4.75;;;;;;;;;;5011335;28;20095;-75
2023/05/11 01:30:23;;;;;;;6.65;5.20;;;;;;;;;;5011813;28;20408;-76
2023/05/11 01:32:50;;;;;;;5.93;4.80;;;;;;;;;;5011905;28;20164;-75
2023/05/11 01:35:20;;;;;;;7.32;5.40;;;;;;;;;;5011852;28;20030;-76
2023/05/11 01:37:48;;;;;;;8.73;5.13;;;;;;;;;;5011288;28;20041;-75
2023/05/11 01:40:18;;;;;;;5.18;4.68;;;;;;;;;;4994003;28;20273;-75
2023/05/11 01:42:47;;;;;;;7.03;5.40;;;;;;;;;;5011649;28;20137;-75
2023/05/11 01:45:15;;;;;;;7.60;5.38;;;;;;;;;;4993750;28;20123;-75
2023/05/11 01:47:41;;;;;;;6.72;5.30;;;;;;;;;;5006311;28;20066;-75
2023/05/11 01:50:08;;;;;;;9.65;5.28;;;;;;;;;;4992074;28;20029;-75
2023/05/11 01:52:35;;;;;;;6.93;5.18;;;;;;;;;;4998967;28;20096;-76
2023/05/11 01:55:03;;;;;;;6.85;5.45;;;;;;;;;;5011397;28;20387;-75
2023/05/11 01:57:30;;;;;;;9.32;6.32;;;;;;;;;;5010915;28;20026;-75
2023/05/11 01:59:56;;;;;;;7.00;6.00;;;;;;;;;;5010066;28;20026;-76
2023/05/11 02:02:22;;;;;;;8.40;5.95;;;;;;;;;;5013656;28;20029;-75
2023/05/11 02:04:49;;;;;;;9.10;6.00;;;;;;;;;;5000805;28;20034;-75
2023/05/11 02:07:16;;;;;;;7.30;5.43;;;;;;;;;;5007406;28;20014;-75
2023/05/11 02:09:42;;;;;;;8.27;5.47;;;;;;;;;;4998231;28;20112;-75
2023/05/11 02:12:09;;;;;;;6.45;5.10;;;;;;;;;;5011302;28;20019;-76
2023/05/11 02:14:36;;;;;;;10.45;6.15;;;;;;;;;;5011191;28;20028;-75
2023/05/11 02:17:02;;;;;;;10.02;5.82;;;;;;;;;;4993047;28;20029;-76
2023/05/11 02:19:29;;;;;;;6.97;6.28;;;;;;;;;;5010973;28;20030;-76
2023/05/11 02:21:55;;;;;;;10.57;6.90;;;;;;;;;;5011189;28;20426;-75
2023/05/11 02:24:23;;;;;;;10.32;7.43;;;;;;;;;;4993576;28;20437;-76
2023/05/11 02:26:49;;;;;;;7.05;6.35;;;;;;;;;;5011429;28;20477;-76
2023/05/11 02:29:15;;;;;;;8.55;6.82;;;;;;;;;;5010895;28;20026;-75
2023/05/11 02:31:43;;;;;;;9.38;7.60;;;;;;;;;;4993240;28;20076;-75
2023/05/11 02:34:22;;;;;;;10.65;7.72;;;;;;;;;;4998367;28;20034;-76
2023/05/11 02:36:49;;;;;;;8.70;7.20;;;;;;;;;;4994893;28;20117;-75
2023/05/11 02:39:18;;;;;;;12.60;8.18;;;;;;;;;;4994280;28;20037;-75
2023/05/11 02:41:45;;;;;;;10.27;8.73;;;;;;;;;;4994625;28;20018;-76
2023/05/11 02:44:13;;;;;;;10.77;8.48;;;;;;;;;;4994790;28;20080;-75
2023/05/11 02:46:40;;;;;;;10.35;7.88;;;;;;;;;;4995040;28;20057;-76
2023/05/11 02:49:08;;;;;;;9.75;8.32;;;;;;;;;;4994101;28;20046;-76
2023/05/11 02:51:38;;;;;;;10.02;7.68;;;;;;;;;;4977256;28;20026;-75
2023/05/11 02:54:06;;;;;;;12.15;7.43;;;;;;;;;;5014036;28;20022;-75
2023/05/11 02:56:33;;;;;;;8.27;7.07;;;;;;;;;;5014398;28;20476;-75
2023/05/11 02:58:59;;;;;;;10.27;6.95;;;;;;;;;;5013606;28;20495;-75
2023/05/11 03:01:25;;;;;;;9.85;7.45;;;;;;;;;;4996897;28;20026;-76
2023/05/11 03:03:51;;;;;;;6.95;6.25;;;;;;;;;;5014030;28;20034;-75
2023/05/11 03:06:17;;;;;;;8.65;5.95;;;;;;;;;;5014255;28;20022;-75
2023/05/11 03:08:43;;;;;;;8.45;6.45;;;;;;;;;;5013525;28;20025;-76
2023/05/11 03:11:10;;;;;;;7.00;6.25;;;;;;;;;;5011661;28;20018;-76
2023/05/11 03:13:36;;;;;;;11.30;6.95;;;;;;;;;;5017082;28;20512;-75
2023/05/11 03:16:02;;;;;;;7.78;6.03;;;;;;;;;;5013510;28;20057;-75
2023/05/11 03:18:29;;;;;;;8.52;6.07;;;;;;;;;;5010274;28;20088;-75
2023/05/11 03:20:55;;;;;;;10.73;5.97;;;;;;;;;;5002894;28;20033;-75
2023/05/11 03:23:22;;;;;;;8.57;6.10;;;;;;;;;;4976774;28;20045;-75
2023/05/11 03:25:48;;;;;;;9.63;6.18;;;;;;;;;;4976777;28;20114;-75
2023/05/11 03:28:14;;;;;;;7.15;5.93;;;;;;;;;;4983002;28;20018;-76
2023/05/11 03:30:42;;;;;;;6.03;5.03;;;;;;;;;;5013780;28;20022;-75
2023/05/11 03:33:08;;;;;;;7.38;5.15;;;;;;;;;;5013671;28;20505;-75
2023/05/11 03:35:36;;;;;;;6.25;5.35;;;;;;;;;;5013627;28;20029;-75
2023/05/11 03:38:04;;;;;;;5.35;4.85;;;;;;;;;;5012749;28;20492;-77
2023/05/11 03:40:30;;;;;;;9.13;5.15;;;;;;;;;;4996105;28;20033;-76
2023/05/11 03:42:56;;;;;;;7.85;4.90;;;;;;;;;;5013784;28;20030;-76
2023/05/11 03:45:23;;;;;;;6.07;4.65;;;;;;;;;;4995234;28;20484;-77
2023/05/11 03:47:49;;;;;;;6.55;4.70;;;;;;;;;;5013093;28;20053;-76
2023/05/11 03:50:16;;;;;;;5.85;4.80;;;;;;;;;;5013558;28;20018;-77
2023/05/11 03:52:43;;;;;;;6.82;4.57;;;;;;;;;;5013126;28;20026;-77
2023/05/11 03:55:09;;;;;;;9.32;4.93;;;;;;;;;;4995695;28;20022;-77
2023/05/11 03:57:35;;;;;;;7.45;4.47;;;;;;;;;;5012628;28;20590;-76
2023/05/11 04:00:02;;;;;;;4.65;4.13;;;;;;;;;;4995851;28;20507;-76
2023/05/11 04:02:28;;;;;;;7.18;4.45;;;;;;;;;;5013238;28;20030;-76
2023/05/11 04:04:54;;;;;;;7.60;4.07;;;;;;;;;;5012905;28;20033;-74
2023/05/11 04:07:20;;;;;;;5.05;3.60;;;;;;;;;;5012239;28;20050;-74
2023/05/11 04:09:46;;;;;;;9.20;4.47;;;;;;;;;;4995345;28;20449;-75
2023/05/11 04:12:12;;;;;;;9.10;4.05;;;;;;;;;;5013189;28;20369;-76
2023/05/11 04:14:38;;;;;;;7.38;3.92;;;;;;;;;;5013126;28;20037;-76
2023/05/11 04:17:04;;;;;;;5.10;3.95;;;;;;;;;;4995053;28;20030;-76
2023/05/11 04:19:30;;;;;;;4.22;2.83;;;;;;;;;;5012642;28;20026;-76
2023/05/11 04:21:56;;;;;;;5.55;3.60;;;;;;;;;;5016661;28;20024;-76
2023/05/11 04:24:22;;;;;;;5.55;3.40;;;;;;;;;;5017246;28;20029;-76
2023/05/11 04:26:48;;;;;;;6.65;3.70;;;;;;;;;;5012693;28;20018;-75
2023/05/11 04:29:14;;;;;;;5.90;3.95;;;;;;;;;;4994385;28;20045;-75
2023/05/11 04:31:40;;;;;;;5.70;4.03;;;;;;;;;;5012616;28;20472;-75
2023/05/11 04:34:07;;;;;;;3.80;3.30;;;;;;;;;;5012398;28;20026;-76
2023/05/11 04:36:33;;;;;;;7.20;3.70;;;;;;;;;;5012251;28;20036;-76
2023/05/11 04:38:59;;;;;;;6.45;3.65;;;;;;;;;;4993965;28;20152;-77
2023/05/11 04:41:25;;;;;;;6.93;3.60;;;;;;;;;;5012667;28;20104;-75
2023/05/11 04:43:51;;;;;;;9.95;3.60;;;;;;;;;;4994572;28;20830;-75
2023/05/11 04:46:17;;;;;;;7.10;3.65;;;;;;;;;;4994803;28;20120;-75
2023/05/11 04:48:43;;;;;;;6.70;3.85;;;;;;;;;;5011877;28;20022;-75
2023/05/11 04:51:09;;;;;;;5.75;3.20;;;;;;;;;;5011984;28;20116;-75
2023/05/11 04:53:35;;;;;;;6.75;3.35;;;;;;;;;;5012164;28;20461;-75
2023/05/11 04:56:01;;;;;;;5.05;3.08;;;;;;;;;;5010967;28;20037;-77
2023/05/11 04:58:27;;;;;;;4.95;3.30;;;;;;;;;;5008002;28;20029;-76
2023/05/11 05:00:53;;;;;;;3.92;3.30;;;;;;;;;;5011340;28;20022;-76
2023/05/11 05:03:19;;;;;;;5.28;3.00;;;;;;;;;;5007111;28;20030;-76
2023/05/11 05:05:45;;;;;;;4.03;3.03;;;;;;;;;;5012283;28;20080;-76
2023/05/11 05:08:11;;;;;;;4.20;3.13;;;;;;;;;;5011586;28;20435;-77
2023/05/11 05:10:37;;;;;;;5.47;3.30;;;;;;;;;;5011968;28;20018;-76
2023/05/11 05:13:03;;;;;;;8.60;3.30;;;;;;;;;;5011705;28;20022;-76
2023/05/11 05:15:29;;;;;;;4.97;3.30;;;;;;;;;;4993873;28;20049;-77
2023/05/11 05:17:55;;;;;;;9.85;3.25;;;;;;;;;;4993383;28;20103;-76
2023/05/11 05:20:21;;;;;;;7.35;3.90;;;;;;;;;;5009782;28;20029;-76
2023/05/11 05:22:47;;;;;;;4.70;3.72;;;;;;;;;;5011284;28;20053;-76
2023/05/11 05:25:13;;;;;;;8.73;3.90;;;;;;;;;;5011556;28;20025;-75
2023/05/11 05:27:39;;;;;;;7.85;3.55;;;;;;;;;;5010791;28;20095;-75
2023/05/11 05:30:06;;;;;;;6.05;3.47;;;;;;;;;;4998445;28;20520;-75
2023/05/11 05:32:32;;;;;;;5.80;3.58;;;;;;;;;;4995572;28;20125;-76
2023/05/11 05:34:58;;;;;;;4.55;3.60;;;;;;;;;;4976538;28;20168;-76
2023/05/11 05:37:24;;;;;;;11.98;3.67;;;;;;;;;;5010232;28;20030;-75
2023/05/11 05:39:50;;;;;;;7.93;3.60;;;;;;;;;;5011118;28;20030;-76
2023/05/11 05:42:16;;;;;;;5.40;3.15;;;;;;;;;;5011426;28;20024;-78
2023/05/11 05:44:42;;;;;;;5.22;3.28;;;;;;;;;;5011115;28;20030;-76
2023/05/11 05:47:08;;;;;;;6.07;3.03;;;;;;;;;;5010897;28;20494;-76
2023/05/11 05:49:34;;;;;;;6.90;3.00;;;;;;;;;;5011635;28;20026;-76
2023/05/11 05:52:00;;;;;;;9.70;3.47;;;;;;;;;;5011937;28;20101;-76
2023/05/11 05:54:26;;;;;;;9.77;3.05;;;;;;;;;;5012118;28;20072;-76
2023/05/11 05:56:52;;;;;;;7.60;3.28;;;;;;;;;;5011973;28;20026;-76
2023/05/11 05:59:22;;;;;;;13.13;3.45;;;;;;;;;;5010748;28;20041;-77
2023/05/11 06:01:48;;;;;;;3.58;2.95;;;;;;;;;;5011374;28;20024;-77
2023/05/11 06:04:14;;;;;;;8.82;3.00;;;;;;;;;;5013001;28;20053;-77
2023/05/11 06:06:40;;;;;;;6.22;3.10;;;;;;;;;;4995994;28;20026;-77
2023/05/11 06:09:07;;;;;;;8.30;3.83;;;;;;;;;;5013802;28;20393;-77
2023/05/11 06:11:33;;;;;;;6.40;3.08;;;;;;;;;;4997569;28;20049;-77
2023/05/11 06:14:02;;;;;;;8.15;2.80;;;;;;;;;;4996465;28;20026;-77
2023/05/11 06:16:31;;;;;;;3.97;2.65;;;;;;;;;;4997981;28;20022;-77
2023/05/11 06:18:57;;;;;;;3.45;2.78;;;;;;;;;;5015186;28;20050;-77
2023/05/11 06:21:26;;;;;;;5.05;3.15;;;;;;;;;;4997910;28;20507;-78
2023/05/11 06:23:52;;;;;;;8.25;3.13;;;;;;;;;;5016771;28;20106;-76
2023/05/11 06:26:18;;;;;;;9.13;3.25;;;;;;;;;;5015494;28;20053;-76
2023/05/11 06:28:44;;;;;;;6.88;3.20;;;;;;;;;;5014676;28;20026;-77
2023/05/11 06:31:14;;;;;;;10.38;3.20;;;;;;;;;;5014980;28;20514;-77
2023/05/11 06:33:40;;;;;;;4.50;3.20;;;;;;;;;;5015247;28;20050;-77
2023/05/11 06:36:06;;;;;;;5.13;2.67;;;;;;;;;;5014546;28;20026;-77
2023/05/11 06:38:32;;;;;;;8.30;2.65;;;;;;;;;;4997108;28;20022;-79
2023/05/11 06:40:58;;;;;;;3.05;2.58;;;;;;;;;;5022833;28;20060;-78
2023/05/11 06:43:25;;;;;;;3.75;2.53;;;;;;;;;;5019076;28;20025;-78
2023/05/11 06:45:51;;;;;;;6.43;2.78;;;;;;;;;;5018109;28;20081;-77
2023/05/11 06:48:22;;;;;;;6.10;2.33;;;;;;;;;;4988017;28;20026;-77
2023/05/11 06:50:48;;;;;;;;;;;;;;;;;;5001654;28;20089;-75
2023/05/11 06:53:15;;;;;;;5.53;2.40;;;;;;;;;;5006734;28;19972;-70
2023/05/11 06:55:41;;;;;;;5.65;2.72;;;;;;;;;;5012818;28;20034;-76
2023/05/11 06:58:08;;;;;;;3.97;2.60;;;;;;;;;;5011874;28;20026;-76
2023/05/11 07:00:34;;;;;;;5.45;2.22;;;;;;;;;;5014642;28;20022;-75
2023/05/11 07:03:00;;;;;;;4.75;2.80;;;;;;;;;;4996253;28;20060;-75
2023/05/11 07:05:26;;;;;;;3.22;2.17;;;;;;;;;;5013634;28;20052;-74
2023/05/11 07:07:52;;;;;;;4.53;2.33;;;;;;;;;;4996038;28;20080;-76
2023/05/11 07:10:18;;;;;;;11.77;2.70;;;;;;;;;;5013817;28;20022;-74
2023/05/11 07:12:44;;;;;;;3.90;2.35;;;;;;;;;;5013432;28;20624;-75
2023/05/11 07:15:11;;;;;;;6.93;2.50;;;;;;;;;;5011967;28;20030;-76
2023/05/11 07:17:37;;;;;;;5.63;2.20;;;;;;;;;;4992658;28;20502;-76
2023/05/11 07:20:03;;;;;;;6.85;2.90;;;;;;;;;;5011432;28;20025;-74
2023/05/11 07:22:29;;;;;;;6.88;2.97;;;;;;;;;;5011418;28;20036;-74
2023/05/11 07:24:55;;;;;;;5.32;2.17;;;;;;;;;;4992511;28;20435;-75
2023/05/11 07:27:21;;;;;;;4.68;2.13;;;;;;;;;;5011497;28;20117;-75
2023/05/11 07:29:47;;;;;;;3.22;1.83;;;;;;;;;;5003103;28;20028;-73
2023/05/11 07:32:13;;;;;;;4.45;2.25;;;;;;;;;;5013578;28;20026;-74
2023/05/11 07:34:40;;;;;;;4.65;2.40;;;;;;;;;;4995640;28;20032;-74
2023/05/11 07:37:07;;;;;;;5.75;1.98;;;;;;;;;;5012797;28;20022;-75
2023/05/11 07:39:33;;;;;;;7.80;2.63;;;;;;;;;;5013060;28;20071;-75
2023/05/11 07:41:59;;;;;;;4.72;2.03;;;;;;;;;;4995829;28;20403;-75
2023/05/11 07:44:25;;;;;;;4.78;2.25;;;;;;;;;;4995305;28;20034;-74
2023/05/11 07:46:51;;;;;;;4.05;2.28;;;;;;;;;;5013118;28;20076;-74
2023/05/11 07:49:17;;;;;;;5.53;2.65;;;;;;;;;;5008398;28;20444;-74
2023/05/11 07:51:44;;;;;;;4.95;2.40;;;;;;;;;;5003214;28;20034;-74
2023/05/11 07:54:10;;;;;;;4.63;2.72;;;;;;;;;;5002720;28;20029;-74
2023/05/11 07:56:36;;;;;;;5.95;2.70;;;;;;;;;;5013129;28;20102;-74
2023/05/11 07:59:02;;;;;;;3.72;2.22;;;;;;;;;;4995059;28;20026;-75
2023/05/11 08:01:28;;;;;;;5.45;2.17;;;;;;;;;;5013116;28;20044;-74
2023/05/11 08:03:54;;;;;;;9.32;2.85;;;;;;;;;;5012835;28;20030;-74
2023/05/11 08:06:20;;;;;;;3.42;2.03;;;;;;;;;;5012898;28;20040;-74
2023/05/11 08:08:46;;;;;;;3.05;2.25;;;;;;;;;;4994814;28;20104;-74
2023/05/11 08:11:12;;;;;;;5.13;2.50;;;;;;;;;;5012992;28;20473;-74
2023/05/11 08:13:38;;;;;;;9.15;2.20;;;;;;;;;;5012964;28;20026;-74
2023/05/11 08:16:04;;;;;;;6.75;2.97;;;;;;;;;;5013106;28;20045;-74
2023/05/11 08:18:30;;;;;;;9.07;2.53;;;;;;;;;;5012227;28;20060;-74
2023/05/11 08:20:56;;;;;;;7.25;2.15;;;;;;;;;;4988298;28;20030;-74
2023/05/11 08:23:22;;;;;;;6.38;2.08;;;;;;;;;;4975572;28;20089;-75
2023/05/11 08:25:50;;;;;;;3.00;2.22;;;;;;;;;;5011123;28;20037;-74
2023/05/11 08:28:16;;;;;;;3.90;2.47;;;;;;;;;;5011944;28;20022;-74
2023/05/11 08:30:42;;;;;;;3.50;2.40;;;;;;;;;;5006151;28;20335;-75
2023/05/11 08:33:08;;;;;;;3.28;2.10;;;;;;;;;;4992903;28;20022;-75
2023/05/11 08:35:35;;;;;;;3.58;2.28;;;;;;;;;;4996331;28;20117;-75
2023/05/11 08:38:01;;;;;;;3.00;2.13;;;;;;;;;;5011600;28;20037;-75
2023/05/11 08:40:27;;;;;;;2.58;2.30;;;;;;;;;;5011853;28;20045;-75
2023/05/11 08:42:56;;;;;;;2.47;1.92;;;;;;;;;;5012128;28;20451;-75
2023/05/11 08:45:22;;;;;;;4.43;2.17;;;;;;;;;;5011352;28;20030;-75
2023/05/11 08:47:49;;;;;;;2.25;2.05;;;;;;;;;;5016058;28;20087;-75
2023/05/11 08:50:15;;;;;;;5.15;2.22;;;;;;;;;;4992488;28;20026;-75
2023/05/11 08:52:41;;;;;;;3.58;2.00;;;;;;;;;;5011106;28;20032;-75
2023/05/11 08:55:07;;;;;;;7.88;2.13;;;;;;;;;;5012547;28;20032;-76
2023/05/11 08:57:33;;;;;;;4.68;2.10;;;;;;;;;;5011279;28;20496;-73
2023/05/11 09:00:01;;;;;;;3.95;1.98;;;;;;;;;;4994442;28;20072;-74
2023/05/11 09:02:27;;;;;;;3.92;2.50;;;;;;;;;;5010695;28;20072;-74
2023/05/11 09:04:54;;;;;;;5.55;2.45;;;;;;;;;;5011678;28;20033;-74
2023/05/11 09:07:21;;;;;;;5.03;2.28;;;;;;;;;;4994975;28;20069;-73
2023/05/11 09:09:47;;;;;;;3.45;2.10;;;;;;;;;;4997328;28;20076;-74
2023/05/11 09:12:13;;;;;;;3.83;2.40;;;;;;;;;;5011743;28;20053;-74
2023/05/11 09:14:39;;;;;;;6.05;2.42;;;;;;;;;;4993977;28;20104;-75
2023/05/11 09:17:05;;;;;;;4.38;2.10;;;;;;;;;;4994022;28;20134;-75
2023/05/11 09:19:31;;;;;;;4.38;1.92;;;;;;;;;;5011189;28;20026;-74
2023/05/11 09:21:59;;;;;;;3.97;2.33;;;;;;;;;;5011580;28;20472;-75
2023/05/11 09:24:25;;;;;;;5.78;2.35;;;;;;;;;;4994534;28;20117;-75
2023/05/11 09:27:11;;;;;;;5.22;2.08;;;;;;;;;;5011914;28;20076;-75
2023/05/11 09:29:37;;;;;;;5.57;1.95;;;;;;;;;;5011543;28;20069;-75
2023/05/11 09:32:04;;;;;;;2.67;2.30;;;;;;;;;;5011432;28;20488;-74
2023/05/11 09:34:30;;;;;;;2.97;2.25;;;;;;;;;;5011483;28;20030;-74
2023/05/11 09:36:56;;;;;;;5.28;2.30;;;;;;;;;;5011492;28;20018;-75
2023/05/11 09:39:29;;;;;;;3.63;2.17;;;;;;;;;;5007752;28;20029;-74
2023/05/11 09:42:11;;;;;;;10.75;2.50;;;;;;;;;;4991722;28;20022;-74
2023/05/11 09:44:37;;;;;;;10.25;2.45;;;;;;;;;;4992351;28;20053;-75
2023/05/11 09:47:14;;;;;;;7.13;2.42;;;;;;;;;;4991808;28;20026;-74
2023/05/11 09:49:44;;;;;;;2.10;1.70;;;;;;;;;;4992178;28;20030;-75
2023/05/11 09:52:14;;;;;;;3.78;2.20;;;;;;;;;;4996177;28;20022;-74
2023/05/11 09:54:44;;;;;;;5.18;2.20;;;;;;;;;;5011385;28;20057;-74
2023/05/11 09:57:26;;;;;;;5.05;1.92;;;;;;;;;;5010695;28;20068;-74
2023/05/11 09:59:53;;;;;;;7.85;2.30;;;;;;;;;;5011326;28;20408;-75
2023/05/11 10:02:23;;;;;;;4.35;2.20;;;;;;;;;;5011118;28;20106;-75
2023/05/11 10:04:50;;;;;;;5.75;2.35;;;;;;;;;;5011152;28;20034;-75
2023/05/11 10:07:25;;;;;;;4.88;1.85;;;;;;;;;;5010532;28;20428;-75
2023/05/11 10:09:53;;;;;;;4.53;2.05;;;;;;;;;;5010914;28;20600;-75
2023/05/11 10:12:20;;;;;;;5.50;1.85;;;;;;;;;;4993719;28;20097;-75
2023/05/11 10:14:47;;;;;;;9.77;2.55;;;;;;;;;;4998292;28;20099;-75
2023/05/11 10:17:14;;;;;;;5.07;2.25;;;;;;;;;;4991186;28;20567;-75
2023/05/11 10:19:40;;;;;;;5.13;1.80;;;;;;;;;;4991831;28;20030;-75
2023/05/11 10:22:06;;;;;;;4.78;1.77;;;;;;;;;;4991533;28;20030;-75
2023/05/11 10:24:33;;;;;;;2.80;1.92;;;;;;;;;;4991304;28;20061;-73
2023/05/11 10:27:00;;;;;;;3.83;1.90;;;;;;;;;;4991336;28;20022;-73
2023/05/11 10:29:26;;;;;;;4.63;1.80;;;;;;;;;;4990748;28;20313;-74
2023/05/11 10:31:53;;;;;;;6.50;2.20;;;;;;;;;;4991416;28;20026;-75
2023/05/11 10:34:19;;;;;;;5.30;2.08;;;;;;;;;;4991359;28;20036;-73
2023/05/11 10:36:46;;;;;;;5.47;2.10;;;;;;;;;;4991384;28;20030;-74
2023/05/11 10:39:12;;;;;;;7.15;2.15;;;;;;;;;;4990797;28;20049;-75
2023/05/11 10:42:07;;;;;;;9.68;2.20;;;;;;;;;;4991076;28;20466;-75
2023/05/11 10:44:33;;;;;;;2.95;2.20;;;;;;;;;;4981898;28;20069;-74
2023/05/11 10:47:09;;;;;;;2.20;2.00;;;;;;;;;;4990719;28;20449;-73
2023/05/11 10:49:55;;;;;;;4.75;1.70;;;;;;;;;;4991189;28;20023;-74
2023/05/11 10:52:41;;;;;;;2.95;1.73;;;;;;;;;;4996212;28;20022;-75
2023/05/11 10:55:26;;;;;;;7.32;2.20;;;;;;;;;;5013864;28;20053;-75
2023/05/11 10:58:02;;;;;;;2.85;1.88;;;;;;;;;;5013764;28;20026;-74
2023/05/11 11:00:47;;;;;;;5.15;1.80;;;;;;;;;;5014483;28;20030;-74
2023/05/11 11:03:14;;;;;;;8.43;2.00;;;;;;;;;;5014198;28;20026;-74
2023/05/11 11:05:42;;;;;;;3.90;1.77;;;;;;;;;;5013724;28;20203;-77
2023/05/11 11:08:08;;;;;;;2.85;2.00;;;;;;;;;;5010498;28;20022;-77
2023/05/11 11:10:45;;;;;;;2.85;1.98;;;;;;;;;;5011539;28;20112;-77
2023/05/11 11:13:11;;;;;;;4.70;2.17;;;;;;;;;;5010359;28;20637;-76
2023/05/11 11:15:52;;;;;;;2.33;1.77;;;;;;;;;;5011100;28;20403;-75
2023/05/11 11:18:23;;;;;;;4.93;2.42;;;;;;;;;;5007852;28;20030;-77
2023/05/11 11:20:50;;;;;;;2.30;1.83;;;;;;;;;;5012031;28;20491;-76
2023/05/11 11:23:34;;;;;;;3.45;2.00;;;;;;;;;;5012060;28;20033;-76
2023/05/11 11:26:01;;;;;;;3.97;1.92;;;;;;;;;;5012791;28;20503;-77
2023/05/11 11:28:27;;;;;;;3.67;1.80;;;;;;;;;;5013140;28;20439;-75
2023/05/11 11:31:12;;;;;;;4.15;1.95;;;;;;;;;;5013855;28;20022;-76
2023/05/11 11:33:38;;;;;;;9.35;2.42;;;;;;;;;;5014076;28;20502;-76
2023/05/11 11:36:04;;;;;;;3.42;1.80;;;;;;;;;;4996128;28;20484;-76
2023/05/11 11:38:31;;;;;;;2.72;1.77;;;;;;;;;;5011269;28;20400;-76
2023/05/11 11:40:58;;;;;;;2.80;1.52;;;;;;;;;;4994157;28;20173;-76
2023/05/11 11:43:28;;;;;;;3.85;1.65;;;;;;;;;;5011393;28;20037;-76
2023/05/11 11:45:55;;;;;;;3.65;1.92;;;;;;;;;;5011892;28;20033;-76
2023/05/11 11:48:31;;;;;;;2.05;1.85;;;;;;;;;;5011051;28;20143;-76
2023/05/11 11:51:15;;;;;;;3.10;2.00;;;;;;;;;;5011832;28;20084;-76
2023/05/11 11:53:42;;;;;;;3.65;1.85;;;;;;;;;;4995194;28;20029;-77
2023/05/11 11:56:14;;;;;;;3.92;2.05;;;;;;;;;;5006893;28;20033;-76
2023/05/11 11:58:44;;;;;;;3.80;1.90;;;;;;;;;;5012202;28;20025;-76
2023/05/11 12:01:20;;;;;;;3.83;2.13;;;;;;;;;;4994364;28;20026;-76
2023/05/11 12:03:51;;;;;;;6.80;2.08;;;;;;;;;;5013548;28;20025;-76
2023/05/11 12:06:21;;;;;;;2.05;1.65;;;;;;;;;;5011700;28;20068;-76
2023/05/11 12:08:47;;;;;;;3.03;1.50;;;;;;;;;;5012584;28;20077;-75
2023/05/11 12:11:16;;;;;;;3.13;2.03;;;;;;;;;;5013253;28;20022;-75
2023/05/11 12:13:45;;;;;;;4.88;2.00;;;;;;;;;;5012853;28;20026;-77
2023/05/11 12:16:13;;;;;;;4.13;2.05;;;;;;;;;;5013263;28;20022;-76
2023/05/11 12:18:39;;;;;;;3.65;2.25;;;;;;;;;;5012504;28;20053;-76
2023/05/11 12:21:05;;;;;;;6.15;2.33;;;;;;;;;;5012946;28;20026;-76
2023/05/11 12:23:31;;;;;;;7.07;2.70;;;;;;;;;;5013017;28;20029;-77
2023/05/11 12:26:04;;;;;;;2.33;1.73;;;;;;;;;;5013083;28;20033;-76
2023/05/11 12:28:30;;;;;;;4.03;2.22;;;;;;;;;;5012848;28;20022;-76
2023/05/11 12:30:56;;;;;;;4.93;2.13;;;;;;;;;;5015767;28;20404;-77
2023/05/11 12:33:23;;;;;;;4.00;1.92;;;;;;;;;;4997240;28;20052;-75
2023/05/11 12:35:56;;;;;;;6.22;2.03;;;;;;;;;;5006263;28;20033;-77
2023/05/11 12:38:23;;;;;;;4.97;1.83;;;;;;;;;;4996533;28;20054;-75
2023/05/11 12:40:49;;;;;;;5.82;2.20;;;;;;;;;;5012481;28;20388;-76
2023/05/11 12:43:19;;;;;;;4.35;2.50;;;;;;;;;;4994905;28;20142;-76
2023/05/11 12:45:45;;;;;;;3.80;1.60;;;;;;;;;;5011457;28;20034;-75
2023/05/11 12:48:12;;;;;;;3.38;2.15;;;;;;;;;;5011469;28;20022;-76
2023/05/11 12:50:42;;;;;;;5.20;2.00;;;;;;;;;;4994249;28;20025;-75
2023/05/11 12:53:12;;;;;;;4.18;1.80;;;;;;;;;;4994390;28;20053;-76
2023/05/11 12:55:38;;;;;;;6.35;1.83;;;;;;;;;;5003769;28;20030;-76
2023/05/11 12:58:13;;;;;;;4.35;2.28;;;;;;;;;;5004438;28;20404;-76
2023/05/11 13:00:53;;;;;;;6.95;2.22;;;;;;;;;;5012573;28;20022;-77
2023/05/11 13:03:23;;;;;;;4.78;1.73;;;;;;;;;;5011175;28;20053;-76
2023/05/11 13:05:49;;;;;;;4.75;2.45;;;;;;;;;;5011566;28;20034;-77
2023/05/11 13:08:18;;;;;;;3.85;2.00;;;;;;;;;;5013453;28;20022;-77
2023/05/11 13:10:44;;;;;;;4.43;1.77;;;;;;;;;;5014014;28;20026;-77
2023/05/11 13:13:10;;;;;;;3.75;1.95;;;;;;;;;;5014708;28;20053;-77
2023/05/11 13:15:50;;;;;;;3.70;1.83;;;;;;;;;;4995772;28;20026;-77
2023/05/11 13:18:16;;;;;;;4.47;1.80;;;;;;;;;;5010826;28;20534;-76
2023/05/11 13:20:43;;;;;;;7.93;2.08;;;;;;;;;;5012033;28;20636;-76
2023/05/11 13:23:13;;;;;;;2.72;1.77;;;;;;;;;;5011933;28;20515;-76
2023/05/11 13:25:47;;;;;;;4.03;1.92;;;;;;;;;;4994282;28;20040;-76
2023/05/11 13:28:13;;;;;;;2.00;1.70;;;;;;;;;;5002435;28;20084;-76
2023/05/11 13:30:39;;;;;;;4.25;1.83;;;;;;;;;;4998386;28;20503;-77
2023/05/11 13:33:05;;;;;;;4.63;2.08;;;;;;;;;;5031354;28;20026;-77
2023/05/11 13:35:31;;;;;;;3.47;1.58;;;;;;;;;;5023286;28;20048;-76
2023/05/11 13:37:58;;;;;;;9.88;1.88;;;;;;;;;;5010575;28;20519;-76
2023/05/11 13:40:24;;;;;;;5.57;1.70;;;;;;;;;;5011749;28;20034;-75
2023/05/11 13:42:50;;;;;;;5.15;1.65;;;;;;;;;;5011643;28;20117;-75
2023/05/11 13:45:16;;;;;;;3.67;1.90;;;;;;;;;;5011813;28;20037;-76
2023/05/11 13:47:42;;;;;;;3.05;2.13;;;;;;;;;;5010443;28;20022;-77
2023/05/11 13:50:09;;;;;;;4.47;2.00;;;;;;;;;;5011553;28;20098;-76
2023/05/11 13:52:36;;;;;;;6.45;1.55;;;;;;;;;;5011602;28;20018;-77
2023/05/11 13:55:02;;;;;;;2.58;1.55;;;;;;;;;;5011485;28;20018;-75
2023/05/11 13:57:28;;;;;;;4.43;1.55;;;;;;;;;;5011074;28;20033;-76
2023/05/11 13:59:54;;;;;;;4.13;1.27;;;;;;;;;;5011639;28;20400;-77
2023/05/11 14:02:20;;;;;;;2.80;1.50;;;;;;;;;;5011520;28;20072;-77
2023/05/11 14:04:46;;;;;;;3.38;1.88;;;;;;;;;;5011574;28;20022;-77
2023/05/11 14:07:13;;;;;;;3.92;1.88;;;;;;;;;;4993234;28;20026;-76
2023/05/11 14:09:39;;;;;;;2.55;1.60;;;;;;;;;;5012269;28;20030;-76
2023/05/11 14:12:07;;;;;;;3.60;1.70;;;;;;;;;;5011869;28;20021;-76
2023/05/11 14:14:33;;;;;;;3.17;1.50;;;;;;;;;;5012667;28;20098;-76
2023/05/11 14:16:59;;;;;;;6.47;1.98;;;;;;;;;;5011214;28;20511;-76
2023/05/11 14:19:28;;;;;;;3.70;1.80;;;;;;;;;;5011373;28;20040;-76
2023/05/11 14:21:55;;;;;;;3.78;1.50;;;;;;;;;;5011558;28;20049;-76
2023/05/11 14:24:21;;;;;;;4.32;1.63;;;;;;;;;;5011190;28;20024;-77
2023/05/11 14:26:47;;;;;;;3.63;1.45;;;;;;;;;;5011932;28;20109;-76
2023/05/11 14:29:16;;;;;;;5.38;1.48;;;;;;;;;;5012769;28;20056;-76
2023/05/11 14:31:42;;;;;;;8.18;1.73;;;;;;;;;;5016384;28;20022;-77
2023/05/11 14:34:08;;;;;;;2.47;1.05;;;;;;;;;;5016688;28;20026;-77
2023/05/11 14:36:35;;;;;;;7.30;1.88;;;;;;;;;;5015235;28;20377;-77
2023/05/11 14:39:01;;;;;;;2.90;1.60;;;;;;;;;;5014006;28;20483;-75
2023/05/11 14:41:27;;;;;;;4.15;1.73;;;;;;;;;;5015522;28;20121;-77
2023/05/11 14:43:53;;;;;;;4.75;1.70;;;;;;;;;;5014495;28;20101;-76
2023/05/11 14:46:20;;;;;;;5.50;1.77;;;;;;;;;;5014522;28;20022;-76